sensor_id;sensor_type;location;lat;lon;timestamp;P1;durP1;ratioP1;P2;durP2;ratioP2
35606;SDS011;21729;58.392;15.656;2022-09-28T00:01:49;25.00;;;20.02;;
35606;SDS011;21729;58.392;15.656;2022-09-28T00:04:17;24.25;;;19.90;;
35606;SDS011;21729;58.392;15.656;2022-09-28T00:06:44;21.70;;;18.83;;
35606;SDS011;21729;58.392;15.656;2022-09-28T00:09:14;22.23;;;19.38;;
35606;SDS011;21729;58.392;15.656;2022-09-28T00:11:42;21.42;;;18.98;;
35606;SDS011;21729;58.392;15.656;2022-09-28T00:14:10;25.67;;;19.17;;
35606;SDS011;21729;58.392;15.656;2022-09-28T00:16:38;24.05;;;20.98;;
35606;SDS011;21729;58.392;15.656;2022-09-28T00:19:07;25.55;;;21.10;;
35606;SDS011;21729;58.392;15.656;2022-09-28T00:21:35;23.70;;;20.88;;
35606;SDS011;21729;58.392;15.656;2022-09-28T00:24:04;26.98;;;22.33;;
35606;SDS011;21729;58.392;15.656;2022-09-28T00:26:41;25.13;;;21.67;;
35606;SDS011;21729;58.392;15.656;2022-09-28T00:29:15;25.25;;;21.38;;
35606;SDS011;21729;58.392;15.656;2022-09-28T00:31:44;25.75;;;21.40;;
35606;SDS011;21729;58.392;15.656;2022-09-28T00:34:12;23.90;;;21.40;;
35606;SDS011;21729;58.392;15.656;2022-09-28T00:36:41;24.05;;;21.48;;
35606;SDS011;21729;58.392;15.656;2022-09-28T00:39:10;24.20;;;20.88;;
35606;SDS011;21729;58.392;15.656;2022-09-28T00:41:38;25.50;;;20.60;;
35606;SDS011;21729;58.392;15.656;2022-09-28T00:44:21;23.58;;;21.02;;
35606;SDS011;21729;58.392;15.656;2022-09-28T00:47:03;26.10;;;22.25;;
35606;SDS011;21729;58.392;15.656;2022-09-28T00:49:39;24.90;;;21.95;;
35606;SDS011;21729;58.392;15.656;2022-09-28T00:52:09;24.17;;;20.80;;
35606;SDS011;21729;58.392;15.656;2022-09-28T00:54:39;25.83;;;22.17;;
35606;SDS011;21729;58.392;15.656;2022-09-28T00:57:10;25.38;;;22.55;;
35606;SDS011;21729;58.392;15.656;2022-09-28T00:59:37;27.42;;;23.67;;
35606;SDS011;21729;58.392;15.656;2022-09-28T01:02:05;26.63;;;23.00;;
35606;SDS011;21729;58.392;15.656;2022-09-28T01:04:34;26.67;;;23.70;;
35606;SDS011;21729;58.392;15.656;2022-09-28T01:07:03;28.70;;;23.98;;
35606;SDS011;21729;58.392;15.656;2022-09-28T01:09:33;25.27;;;22.67;;
35606;SDS011;21729;58.392;15.656;2022-09-28T01:12:04;26.95;;;23.13;;
35606;SDS011;21729;58.392;15.656;2022-09-28T01:14:33;26.20;;;23.35;;
35606;SDS011;21729;58.392;15.656;2022-09-28T01:17:03;29.05;;;23.70;;
35606;SDS011;21729;58.392;15.656;2022-09-28T01:19:45;28.83;;;23.77;;
35606;SDS011;21729;58.392;15.656;2022-09-28T01:22:26;27.50;;;23.58;;
35606;SDS011;21729;58.392;15.656;2022-09-28T01:25:05;26.90;;;23.73;;
35606;SDS011;21729;58.392;15.656;2022-09-28T01:27:38;26.60;;;23.65;;
35606;SDS011;21729;58.392;15.656;2022-09-28T01:30:10;25.80;;;22.80;;
35606;SDS011;21729;58.392;15.656;2022-09-28T01:32:42;29.02;;;23.90;;
35606;SDS011;21729;58.392;15.656;2022-09-28T01:35:17;27.92;;;24.08;;
35606;SDS011;21729;58.392;15.656;2022-09-28T01:37:50;26.57;;;23.67;;
35606;SDS011;21729;58.392;15.656;2022-09-28T01:40:21;26.17;;;23.38;;
35606;SDS011;21729;58.392;15.656;2022-09-28T01:42:53;29.77;;;24.45;;
35606;SDS011;21729;58.392;15.656;2022-09-28T01:45:27;28.45;;;24.20;;
35606;SDS011;21729;58.392;15.656;2022-09-28T01:48:01;27.45;;;23.98;;
35606;SDS011;21729;58.392;15.656;2022-09-28T01:50:33;27.70;;;23.40;;
35606;SDS011;21729;58.392;15.656;2022-09-28T01:53:04;26.42;;;23.50;;
35606;SDS011;21729;58.392;15.656;2022-09-28T01:55:37;26.92;;;23.98;;
35606;SDS011;21729;58.392;15.656;2022-09-28T01:58:09;27.35;;;24.33;;
35606;SDS011;21729;58.392;15.656;2022-09-28T02:00:39;26.90;;;23.58;;
35606;SDS011;21729;58.392;15.656;2022-09-28T02:03:10;29.88;;;24.60;;
35606;SDS011;21729;58.392;15.656;2022-09-28T02:05:41;27.05;;;23.85;;
35606;SDS011;21729;58.392;15.656;2022-09-28T02:08:14;28.20;;;24.02;;
35606;SDS011;21729;58.392;15.656;2022-09-28T02:10:47;28.00;;;23.92;;
35606;SDS011;21729;58.392;15.656;2022-09-28T02:13:19;28.75;;;24.52;;
35606;SDS011;21729;58.392;15.656;2022-09-28T02:15:51;31.40;;;25.40;;
35606;SDS011;21729;58.392;15.656;2022-09-28T02:18:22;31.75;;;24.70;;
35606;SDS011;21729;58.392;15.656;2022-09-28T02:20:51;28.00;;;23.25;;
35606;SDS011;21729;58.392;15.656;2022-09-28T02:23:25;30.45;;;24.15;;
35606;SDS011;21729;58.392;15.656;2022-09-28T02:25:54;30.42;;;24.92;;
35606;SDS011;21729;58.392;15.656;2022-09-28T02:28:30;31.10;;;24.73;;
35606;SDS011;21729;58.392;15.656;2022-09-28T02:30:57;31.60;;;24.90;;
35606;SDS011;21729;58.392;15.656;2022-09-28T02:33:25;31.42;;;24.73;;
35606;SDS011;21729;58.392;15.656;2022-09-28T02:35:56;33.22;;;25.67;;
35606;SDS011;21729;58.392;15.656;2022-09-28T02:38:25;29.70;;;24.63;;
35606;SDS011;21729;58.392;15.656;2022-09-28T02:40:56;33.75;;;25.70;;
35606;SDS011;21729;58.392;15.656;2022-09-28T02:43:33;30.35;;;25.45;;
35606;SDS011;21729;58.392;15.656;2022-09-28T02:46:09;33.25;;;25.92;;
35606;SDS011;21729;58.392;15.656;2022-09-28T02:48:50;31.25;;;25.90;;
35606;SDS011;21729;58.392;15.656;2022-09-28T02:51:25;29.30;;;25.25;;
35606;SDS011;21729;58.392;15.656;2022-09-28T02:54:05;30.40;;;25.13;;
35606;SDS011;21729;58.392;15.656;2022-09-28T02:56:52;32.42;;;25.45;;
35606;SDS011;21729;58.392;15.656;2022-09-28T02:59:38;32.17;;;25.42;;
35606;SDS011;21729;58.392;15.656;2022-09-28T03:02:16;32.38;;;24.15;;
35606;SDS011;21729;58.392;15.656;2022-09-28T03:04:55;31.02;;;24.60;;
35606;SDS011;21729;58.392;15.656;2022-09-28T03:07:38;31.05;;;24.77;;
35606;SDS011;21729;58.392;15.656;2022-09-28T03:10:12;30.30;;;24.15;;
35606;SDS011;21729;58.392;15.656;2022-09-28T03:12:43;32.25;;;24.33;;
35606;SDS011;21729;58.392;15.656;2022-09-28T03:15:19;27.70;;;23.15;;
35606;SDS011;21729;58.392;15.656;2022-09-28T03:17:48;29.90;;;23.35;;
35606;SDS011;21729;58.392;15.656;2022-09-28T03:20:15;30.67;;;22.95;;
35606;SDS011;21729;58.392;15.656;2022-09-28T03:22:43;29.75;;;22.55;;
35606;SDS011;21729;58.392;15.656;2022-09-28T03:25:10;27.95;;;23.85;;
35606;SDS011;21729;58.392;15.656;2022-09-28T03:27:37;30.67;;;23.75;;
35606;SDS011;21729;58.392;15.656;2022-09-28T03:30:05;29.42;;;23.10;;
35606;SDS011;21729;58.392;15.656;2022-09-28T03:32:34;26.63;;;22.97;;
35606;SDS011;21729;58.392;15.656;2022-09-28T03:35:01;31.35;;;23.45;;
35606;SDS011;21729;58.392;15.656;2022-09-28T03:37:30;27.10;;;22.63;;
35606;SDS011;21729;58.392;15.656;2022-09-28T03:39:57;28.45;;;22.88;;
35606;SDS011;21729;58.392;15.656;2022-09-28T03:42:24;28.35;;;21.15;;
35606;SDS011;21729;58.392;15.656;2022-09-28T03:44:51;26.98;;;21.80;;
35606;SDS011;21729;58.392;15.656;2022-09-28T03:47:18;26.05;;;21.73;;
35606;SDS011;21729;58.392;15.656;2022-09-28T03:49:47;26.92;;;21.95;;
35606;SDS011;21729;58.392;15.656;2022-09-28T03:52:14;29.30;;;21.33;;
35606;SDS011;21729;58.392;15.656;2022-09-28T03:54:41;27.60;;;20.85;;
35606;SDS011;21729;58.392;15.656;2022-09-28T03:57:08;24.60;;;20.63;;
35606;SDS011;21729;58.392;15.656;2022-09-28T03:59:35;24.45;;;20.40;;
35606;SDS011;21729;58.392;15.656;2022-09-28T04:02:03;23.25;;;19.73;;
35606;SDS011;21729;58.392;15.656;2022-09-28T04:04:30;24.20;;;18.83;;
35606;SDS011;21729;58.392;15.656;2022-09-28T04:06:59;22.52;;;18.38;;
35606;SDS011;21729;58.392;15.656;2022-09-28T04:09:26;20.40;;;17.60;;
35606;SDS011;21729;58.392;15.656;2022-09-28T04:11:53;20.70;;;17.40;;
35606;SDS011;21729;58.392;15.656;2022-09-28T04:14:20;21.58;;;17.13;;
35606;SDS011;21729;58.392;15.656;2022-09-28T04:16:47;18.92;;;16.63;;
35606;SDS011;21729;58.392;15.656;2022-09-28T04:19:18;20.42;;;16.50;;
35606;SDS011;21729;58.392;15.656;2022-09-28T04:21:46;17.88;;;15.82;;
35606;SDS011;21729;58.392;15.656;2022-09-28T04:24:16;21.25;;;16.55;;
35606;SDS011;21729;58.392;15.656;2022-09-28T04:26:44;20.73;;;15.83;;
35606;SDS011;21729;58.392;15.656;2022-09-28T04:29:11;19.75;;;16.02;;
35606;SDS011;21729;58.392;15.656;2022-09-28T04:31:41;17.40;;;15.60;;
35606;SDS011;21729;58.392;15.656;2022-09-28T04:34:10;20.00;;;15.73;;
35606;SDS011;21729;58.392;15.656;2022-09-28T04:36:38;20.48;;;15.57;;
35606;SDS011;21729;58.392;15.656;2022-09-28T04:39:06;18.95;;;15.75;;
35606;SDS011;21729;58.392;15.656;2022-09-28T04:41:34;20.70;;;15.37;;
35606;SDS011;21729;58.392;15.656;2022-09-28T04:44:01;16.60;;;14.77;;
35606;SDS011;21729;58.392;15.656;2022-09-28T04:46:29;19.10;;;15.02;;
35606;SDS011;21729;58.392;15.656;2022-09-28T04:48:57;16.10;;;13.90;;
35606;SDS011;21729;58.392;15.656;2022-09-28T04:51:24;16.95;;;13.90;;
35606;SDS011;21729;58.392;15.656;2022-09-28T04:53:51;19.08;;;14.55;;
35606;SDS011;21729;58.392;15.656;2022-09-28T04:56:18;24.60;;;14.85;;
35606;SDS011;21729;58.392;15.656;2022-09-28T04:58:47;19.02;;;14.45;;
35606;SDS011;21729;58.392;15.656;2022-09-28T05:01:15;15.45;;;13.65;;
35606;SDS011;21729;58.392;15.656;2022-09-28T05:03:44;17.00;;;13.40;;
35606;SDS011;21729;58.392;15.656;2022-09-28T05:06:11;16.52;;;13.90;;
35606;SDS011;21729;58.392;15.656;2022-09-28T05:08:40;15.00;;;13.40;;
35606;SDS011;21729;58.392;15.656;2022-09-28T05:11:09;15.30;;;13.02;;
35606;SDS011;21729;58.392;15.656;2022-09-28T05:13:38;17.00;;;13.32;;
35606;SDS011;21729;58.392;15.656;2022-09-28T05:16:08;17.27;;;13.52;;
35606;SDS011;21729;58.392;15.656;2022-09-28T05:18:36;15.40;;;13.27;;
35606;SDS011;21729;58.392;15.656;2022-09-28T05:21:07;14.00;;;12.60;;
35606;SDS011;21729;58.392;15.656;2022-09-28T05:23:36;13.98;;;12.38;;
35606;SDS011;21729;58.392;15.656;2022-09-28T05:26:04;15.65;;;12.45;;
35606;SDS011;21729;58.392;15.656;2022-09-28T05:28:31;14.93;;;12.32;;
35606;SDS011;21729;58.392;15.656;2022-09-28T05:30:59;14.27;;;12.18;;
35606;SDS011;21729;58.392;15.656;2022-09-28T05:33:28;13.38;;;11.82;;
35606;SDS011;21729;58.392;15.656;2022-09-28T05:35:55;12.75;;;11.38;;
35606;SDS011;21729;58.392;15.656;2022-09-28T05:38:23;12.93;;;11.35;;
35606;SDS011;21729;58.392;15.656;2022-09-28T05:40:50;13.67;;;11.47;;
35606;SDS011;21729;58.392;15.656;2022-09-28T05:43:18;11.90;;;10.70;;
35606;SDS011;21729;58.392;15.656;2022-09-28T05:45:45;13.45;;;11.38;;
35606;SDS011;21729;58.392;15.656;2022-09-28T05:48:12;13.57;;;10.77;;
35606;SDS011;21729;58.392;15.656;2022-09-28T05:50:40;12.48;;;10.48;;
35606;SDS011;21729;58.392;15.656;2022-09-28T05:53:08;13.77;;;10.45;;
35606;SDS011;21729;58.392;15.656;2022-09-28T05:55:36;11.65;;;9.65;;
35606;SDS011;21729;58.392;15.656;2022-09-28T05:58:04;12.40;;;10.05;;
35606;SDS011;21729;58.392;15.656;2022-09-28T06:00:33;11.32;;;10.23;;
35606;SDS011;21729;58.392;15.656;2022-09-28T06:03:02;12.32;;;9.48;;
35606;SDS011;21729;58.392;15.656;2022-09-28T06:05:30;12.93;;;9.63;;
35606;SDS011;21729;58.392;15.656;2022-09-28T06:08:02;12.27;;;9.07;;
35606;SDS011;21729;58.392;15.656;2022-09-28T06:10:29;10.48;;;9.43;;
35606;SDS011;21729;58.392;15.656;2022-09-28T06:12:57;10.35;;;9.35;;
35606;SDS011;21729;58.392;15.656;2022-09-28T06:15:25;9.77;;;8.65;;
35606;SDS011;21729;58.392;15.656;2022-09-28T06:17:57;9.55;;;8.38;;
35606;SDS011;21729;58.392;15.656;2022-09-28T06:20:25;11.30;;;8.45;;
35606;SDS011;21729;58.392;15.656;2022-09-28T06:22:53;9.23;;;8.02;;
35606;SDS011;21729;58.392;15.656;2022-09-28T06:25:22;9.32;;;7.80;;
35606;SDS011;21729;58.392;15.656;2022-09-28T06:27:55;8.98;;;7.85;;
35606;SDS011;21729;58.392;15.656;2022-09-28T06:30:23;8.65;;;7.50;;
35606;SDS011;21729;58.392;15.656;2022-09-28T06:32:52;8.07;;;7.22;;
35606;SDS011;21729;58.392;15.656;2022-09-28T06:35:20;7.90;;;6.60;;
35606;SDS011;21729;58.392;15.656;2022-09-28T06:37:47;7.83;;;6.53;;
35606;SDS011;21729;58.392;15.656;2022-09-28T06:40:15;7.85;;;6.90;;
35606;SDS011;21729;58.392;15.656;2022-09-28T06:42:43;7.82;;;6.35;;
35606;SDS011;21729;58.392;15.656;2022-09-28T06:45:19;6.82;;;6.18;;
35606;SDS011;21729;58.392;15.656;2022-09-28T06:47:51;6.90;;;5.60;;
35606;SDS011;21729;58.392;15.656;2022-09-28T06:50:19;7.47;;;6.18;;
35606;SDS011;21729;58.392;15.656;2022-09-28T06:52:48;6.67;;;5.50;;
35606;SDS011;21729;58.392;15.656;2022-09-28T06:55:16;10.82;;;6.03;;
35606;SDS011;21729;58.392;15.656;2022-09-28T06:57:44;6.60;;;5.97;;
35606;SDS011;21729;58.392;15.656;2022-09-28T07:00:12;6.25;;;5.65;;
35606;SDS011;21729;58.392;15.656;2022-09-28T07:02:40;6.53;;;5.47;;
35606;SDS011;21729;58.392;15.656;2022-09-28T07:05:08;6.97;;;5.38;;
35606;SDS011;21729;58.392;15.656;2022-09-28T07:07:38;9.18;;;5.35;;
35606;SDS011;21729;58.392;15.656;2022-09-28T07:10:08;7.70;;;5.07;;
35606;SDS011;21729;58.392;15.656;2022-09-28T07:12:36;5.57;;;5.07;;
35606;SDS011;21729;58.392;15.656;2022-09-28T07:15:07;7.43;;;5.18;;
35606;SDS011;21729;58.392;15.656;2022-09-28T07:17:34;5.90;;;4.60;;
35606;SDS011;21729;58.392;15.656;2022-09-28T07:20:01;5.18;;;4.18;;
35606;SDS011;21729;58.392;15.656;2022-09-28T07:22:28;6.35;;;4.30;;
35606;SDS011;21729;58.392;15.656;2022-09-28T07:24:55;4.85;;;4.30;;
35606;SDS011;21729;58.392;15.656;2022-09-28T07:27:23;5.10;;;4.60;;
35606;SDS011;21729;58.392;15.656;2022-09-28T07:29:50;5.20;;;4.60;;
35606;SDS011;21729;58.392;15.656;2022-09-28T07:32:19;6.07;;;5.03;;
35606;SDS011;21729;58.392;15.656;2022-09-28T07:34:47;6.55;;;4.90;;
35606;SDS011;21729;58.392;15.656;2022-09-28T07:37:14;5.95;;;4.60;;
35606;SDS011;21729;58.392;15.656;2022-09-28T07:39:43;6.07;;;4.97;;
35606;SDS011;21729;58.392;15.656;2022-09-28T07:42:28;5.80;;;4.43;;
35606;SDS011;21729;58.392;15.656;2022-09-28T07:44:55;5.00;;;4.50;;
35606;SDS011;21729;58.392;15.656;2022-09-28T07:47:24;8.38;;;4.82;;
35606;SDS011;21729;58.392;15.656;2022-09-28T07:49:52;5.68;;;4.65;;
35606;SDS011;21729;58.392;15.656;2022-09-28T07:52:21;5.82;;;4.85;;
35606;SDS011;21729;58.392;15.656;2022-09-28T07:54:50;5.38;;;4.68;;
35606;SDS011;21729;58.392;15.656;2022-09-28T07:57:18;6.00;;;4.50;;
35606;SDS011;21729;58.392;15.656;2022-09-28T07:59:45;4.95;;;4.43;;
35606;SDS011;21729;58.392;15.656;2022-09-28T08:02:14;4.97;;;4.40;;
35606;SDS011;21729;58.392;15.656;2022-09-28T08:04:45;5.22;;;4.22;;
35606;SDS011;21729;58.392;15.656;2022-09-28T08:07:13;5.15;;;4.20;;
35606;SDS011;21729;58.392;15.656;2022-09-28T08:09:41;4.70;;;4.30;;
35606;SDS011;21729;58.392;15.656;2022-09-28T08:12:08;4.85;;;4.35;;
35606;SDS011;21729;58.392;15.656;2022-09-28T08:14:36;5.27;;;4.53;;
35606;SDS011;21729;58.392;15.656;2022-09-28T08:17:03;5.33;;;4.40;;
35606;SDS011;21729;58.392;15.656;2022-09-28T08:19:32;5.45;;;4.60;;
35606;SDS011;21729;58.392;15.656;2022-09-28T08:22:15;5.60;;;4.30;;
35606;SDS011;21729;58.392;15.656;2022-09-28T08:24:43;5.40;;;4.47;;
35606;SDS011;21729;58.392;15.656;2022-09-28T08:27:10;5.33;;;4.83;;
35606;SDS011;21729;58.392;15.656;2022-09-28T08:29:37;4.87;;;4.47;;
35606;SDS011;21729;58.392;15.656;2022-09-28T08:32:05;5.80;;;4.50;;
35606;SDS011;21729;58.392;15.656;2022-09-28T08:34:33;5.45;;;4.78;;
35606;SDS011;21729;58.392;15.656;2022-09-28T08:37:01;5.97;;;5.00;;
35606;SDS011;21729;58.392;15.656;2022-09-28T08:39:29;5.47;;;4.73;;
35606;SDS011;21729;58.392;15.656;2022-09-28T08:42:00;5.20;;;4.30;;
35606;SDS011;21729;58.392;15.656;2022-09-28T08:44:41;5.53;;;4.85;;
35606;SDS011;21729;58.392;15.656;2022-09-28T08:47:12;6.30;;;4.80;;
35606;SDS011;21729;58.392;15.656;2022-09-28T08:49:56;4.80;;;4.40;;
35606;SDS011;21729;58.392;15.656;2022-09-28T08:52:27;5.82;;;5.03;;
35606;SDS011;21729;58.392;15.656;2022-09-28T08:54:59;5.10;;;4.60;;
35606;SDS011;21729;58.392;15.656;2022-09-28T08:57:32;5.37;;;4.90;;
35606;SDS011;21729;58.392;15.656;2022-09-28T09:00:03;6.45;;;5.10;;
35606;SDS011;21729;58.392;15.656;2022-09-28T09:02:31;5.88;;;5.28;;
35606;SDS011;21729;58.392;15.656;2022-09-28T09:05:01;5.93;;;4.75;;
35606;SDS011;21729;58.392;15.656;2022-09-28T09:07:35;6.00;;;4.95;;
35606;SDS011;21729;58.392;15.656;2022-09-28T09:10:22;5.03;;;4.53;;
35606;SDS011;21729;58.392;15.656;2022-09-28T09:13:20;4.78;;;4.38;;
35606;SDS011;21729;58.392;15.656;2022-09-28T09:16:00;5.85;;;4.50;;
35606;SDS011;21729;58.392;15.656;2022-09-28T09:18:35;5.60;;;4.30;;
35606;SDS011;21729;58.392;15.656;2022-09-28T09:21:06;7.72;;;4.50;;
35606;SDS011;21729;58.392;15.656;2022-09-28T09:23:42;4.57;;;3.63;;
35606;SDS011;21729;58.392;15.656;2022-09-28T09:26:20;4.43;;;3.90;;
35606;SDS011;21729;58.392;15.656;2022-09-28T09:31:48;5.10;;;4.20;;
35606;SDS011;21729;58.392;15.656;2022-09-28T09:34:40;4.38;;;3.80;;
35606;SDS011;21729;58.392;15.656;2022-09-28T09:37:31;5.28;;;3.80;;
35606;SDS011;21729;58.392;15.656;2022-09-28T09:40:22;4.90;;;4.07;;
35606;SDS011;21729;58.392;15.656;2022-09-28T09:43:03;4.43;;;3.83;;
35606;SDS011;21729;58.392;15.656;2022-09-28T09:45:46;4.55;;;3.67;;
35606;SDS011;21729;58.392;15.656;2022-09-28T09:48:23;4.10;;;3.70;;
35606;SDS011;21729;58.392;15.656;2022-09-28T09:50:55;6.07;;;3.88;;
35606;SDS011;21729;58.392;15.656;2022-09-28T09:53:26;6.18;;;4.43;;
35606;SDS011;21729;58.392;15.656;2022-09-28T09:55:59;5.85;;;3.85;;
35606;SDS011;21729;58.392;15.656;2022-09-28T09:58:32;4.15;;;3.72;;
35606;SDS011;21729;58.392;15.656;2022-09-28T10:01:04;4.03;;;3.57;;
35606;SDS011;21729;58.392;15.656;2022-09-28T10:03:33;5.00;;;3.38;;
35606;SDS011;21729;58.392;15.656;2022-09-28T10:06:05;3.88;;;3.38;;
35606;SDS011;21729;58.392;15.656;2022-09-28T10:08:38;5.37;;;3.50;;
35606;SDS011;21729;58.392;15.656;2022-09-28T10:11:10;6.63;;;3.65;;
35606;SDS011;21729;58.392;15.656;2022-09-28T10:13:40;5.38;;;3.50;;
35606;SDS011;21729;58.392;15.656;2022-09-28T10:16:08;5.75;;;3.40;;
35606;SDS011;21729;58.392;15.656;2022-09-28T10:18:35;5.47;;;3.40;;
35606;SDS011;21729;58.392;15.656;2022-09-28T10:21:04;4.93;;;3.40;;
35606;SDS011;21729;58.392;15.656;2022-09-28T10:23:31;6.60;;;3.08;;
35606;SDS011;21729;58.392;15.656;2022-09-28T10:26:02;6.30;;;3.30;;
35606;SDS011;21729;58.392;15.656;2022-09-28T10:28:33;4.43;;;2.70;;
35606;SDS011;21729;58.392;15.656;2022-09-28T10:34:06;6.57;;;2.92;;
35606;SDS011;21729;58.392;15.656;2022-09-28T10:36:42;4.60;;;2.95;;
35606;SDS011;21729;58.392;15.656;2022-09-28T10:39:27;3.13;;;2.83;;
35606;SDS011;21729;58.392;15.656;2022-09-28T10:41:57;5.63;;;2.85;;
35606;SDS011;21729;58.392;15.656;2022-09-28T10:44:27;5.00;;;2.83;;
35606;SDS011;21729;58.392;15.656;2022-09-28T10:46:59;3.08;;;2.70;;
35606;SDS011;21729;58.392;15.656;2022-09-28T10:49:28;4.43;;;2.90;;
35606;SDS011;21729;58.392;15.656;2022-09-28T10:52:04;6.95;;;3.20;;
35606;SDS011;21729;58.392;15.656;2022-09-28T10:54:51;4.85;;;2.58;;
35606;SDS011;21729;58.392;15.656;2022-09-28T10:57:23;5.15;;;2.47;;
35606;SDS011;21729;58.392;15.656;2022-09-28T10:59:53;5.00;;;2.60;;
35606;SDS011;21729;58.392;15.656;2022-09-28T11:02:22;2.80;;;2.22;;
35606;SDS011;21729;58.392;15.656;2022-09-28T11:04:53;2.70;;;2.15;;
35606;SDS011;21729;58.392;15.656;2022-09-28T11:07:23;3.50;;;2.00;;
35606;SDS011;21729;58.392;15.656;2022-09-28T11:09:52;3.45;;;2.10;;
35606;SDS011;21729;58.392;15.656;2022-09-28T11:12:21;2.38;;;1.90;;
35606;SDS011;21729;58.392;15.656;2022-09-28T11:14:54;4.20;;;2.20;;
35606;SDS011;21729;58.392;15.656;2022-09-28T11:17:26;2.80;;;2.00;;
35606;SDS011;21729;58.392;15.656;2022-09-28T11:19:55;3.33;;;2.10;;
35606;SDS011;21729;58.392;15.656;2022-09-28T11:22:25;3.53;;;1.90;;
35606;SDS011;21729;58.392;15.656;2022-09-28T11:25:11;2.28;;;1.80;;
35606;SDS011;21729;58.392;15.656;2022-09-28T11:27:55;3.47;;;2.10;;
35606;SDS011;21729;58.392;15.656;2022-09-28T11:30:26;2.83;;;1.60;;
35606;SDS011;21729;58.392;15.656;2022-09-28T11:33:01;4.50;;;2.00;;
35606;SDS011;21729;58.392;15.656;2022-09-28T11:35:32;3.95;;;1.70;;
35606;SDS011;21729;58.392;15.656;2022-09-28T11:41:10;3.45;;;1.80;;
35606;SDS011;21729;58.392;15.656;2022-09-28T11:44:01;4.85;;;1.90;;
35606;SDS011;21729;58.392;15.656;2022-09-28T11:46:42;5.47;;;2.27;;
35606;SDS011;21729;58.392;15.656;2022-09-28T11:49:24;3.63;;;2.22;;
35606;SDS011;21729;58.392;15.656;2022-09-28T11:51:58;5.53;;;1.90;;
35606;SDS011;21729;58.392;15.656;2022-09-28T11:54:29;2.30;;;1.60;;
35606;SDS011;21729;58.392;15.656;2022-09-28T11:57:03;3.40;;;1.73;;
35606;SDS011;21729;58.392;15.656;2022-09-28T11:59:32;3.40;;;1.70;;
35606;SDS011;21729;58.392;15.656;2022-09-28T12:02:09;2.35;;;1.90;;
35606;SDS011;21729;58.392;15.656;2022-09-28T12:04:42;1.92;;;1.40;;
35606;SDS011;21729;58.392;15.656;2022-09-28T12:07:15;2.63;;;1.53;;
35606;SDS011;21729;58.392;15.656;2022-09-28T12:09:45;3.97;;;1.80;;
35606;SDS011;21729;58.392;15.656;2022-09-28T12:12:20;2.55;;;1.80;;
35606;SDS011;21729;58.392;15.656;2022-09-28T12:14:50;2.10;;;1.70;;
35606;SDS011;21729;58.392;15.656;2022-09-28T12:17:22;3.90;;;1.60;;
35606;SDS011;21729;58.392;15.656;2022-09-28T12:19:55;2.22;;;1.73;;
35606;SDS011;21729;58.392;15.656;2022-09-28T12:22:29;2.88;;;1.80;;
35606;SDS011;21729;58.392;15.656;2022-09-28T12:25:00;3.33;;;1.42;;
35606;SDS011;21729;58.392;15.656;2022-09-28T12:27:30;2.50;;;1.58;;
35606;SDS011;21729;58.392;15.656;2022-09-28T12:30:05;2.25;;;1.52;;
35606;SDS011;21729;58.392;15.656;2022-09-28T12:32:40;3.13;;;1.75;;
35606;SDS011;21729;58.392;15.656;2022-09-28T12:35:14;3.78;;;1.95;;
35606;SDS011;21729;58.392;15.656;2022-09-28T12:37:49;3.60;;;1.50;;
35606;SDS011;21729;58.392;15.656;2022-09-28T12:40:35;2.30;;;1.57;;
35606;SDS011;21729;58.392;15.656;2022-09-28T12:43:24;4.10;;;1.60;;
35606;SDS011;21729;58.392;15.656;2022-09-28T12:46:01;1.97;;;1.47;;
35606;SDS011;21729;58.392;15.656;2022-09-28T12:48:43;4.40;;;1.63;;
35606;SDS011;21729;58.392;15.656;2022-09-28T12:51:38;3.30;;;1.58;;
35606;SDS011;21729;58.392;15.656;2022-09-28T12:54:16;4.25;;;1.85;;
35606;SDS011;21729;58.392;15.656;2022-09-28T12:56:54;3.60;;;1.55;;
35606;SDS011;21729;58.392;15.656;2022-09-28T12:59:27;3.75;;;1.60;;
35606;SDS011;21729;58.392;15.656;2022-09-28T13:02:03;2.35;;;1.60;;
35606;SDS011;21729;58.392;15.656;2022-09-28T13:07:46;2.45;;;1.50;;
35606;SDS011;21729;58.392;15.656;2022-09-28T13:10:20;2.03;;;1.60;;
35606;SDS011;21729;58.392;15.656;2022-09-28T13:12:59;2.00;;;1.30;;
35606;SDS011;21729;58.392;15.656;2022-09-28T13:15:47;1.77;;;1.38;;
35606;SDS011;21729;58.392;15.656;2022-09-28T13:18:22;2.60;;;1.20;;
35606;SDS011;21729;58.392;15.656;2022-09-28T13:21:04;2.50;;;1.10;;
35606;SDS011;21729;58.392;15.656;2022-09-28T13:23:40;2.53;;;1.33;;
35606;SDS011;21729;58.392;15.656;2022-09-28T13:26:12;2.50;;;1.08;;
35606;SDS011;21729;58.392;15.656;2022-09-28T13:28:53;2.58;;;1.20;;
35606;SDS011;21729;58.392;15.656;2022-09-28T13:31:26;1.63;;;1.15;;
35606;SDS011;21729;58.392;15.656;2022-09-28T13:33:55;1.70;;;1.10;;
35606;SDS011;21729;58.392;15.656;2022-09-28T13:36:36;3.72;;;1.17;;
35606;SDS011;21729;58.392;15.656;2022-09-28T13:42:27;2.60;;;1.30;;
35606;SDS011;21729;58.392;15.656;2022-09-28T13:45:32;1.65;;;1.10;;
35606;SDS011;21729;58.392;15.656;2022-09-28T13:48:14;2.33;;;1.23;;
35606;SDS011;21729;58.392;15.656;2022-09-28T13:50:56;2.03;;;1.15;;
35606;SDS011;21729;58.392;15.656;2022-09-28T13:53:35;3.03;;;1.35;;
35606;SDS011;21729;58.392;15.656;2022-09-28T13:56:21;2.55;;;1.20;;
35606;SDS011;21729;58.392;15.656;2022-09-28T13:58:55;1.50;;;1.10;;
35606;SDS011;21729;58.392;15.656;2022-09-28T14:01:28;2.65;;;1.25;;
35606;SDS011;21729;58.392;15.656;2022-09-28T14:04:09;2.70;;;1.20;;
35606;SDS011;21729;58.392;15.656;2022-09-28T14:06:41;2.35;;;1.20;;
35606;SDS011;21729;58.392;15.656;2022-09-28T14:09:24;3.47;;;1.20;;
35606;SDS011;21729;58.392;15.656;2022-09-28T14:12:25;1.67;;;1.20;;
35606;SDS011;21729;58.392;15.656;2022-09-28T14:15:13;2.45;;;1.10;;
35606;SDS011;21729;58.392;15.656;2022-09-28T14:18:12;4.70;;;1.30;;
35606;SDS011;21729;58.392;15.656;2022-09-28T14:20:49;3.08;;;1.08;;
35606;SDS011;21729;58.392;15.656;2022-09-28T14:23:45;3.75;;;1.23;;
35606;SDS011;21729;58.392;15.656;2022-09-28T14:26:46;2.60;;;1.00;;
35606;SDS011;21729;58.392;15.656;2022-09-28T14:29:35;3.40;;;1.40;;
35606;SDS011;21729;58.392;15.656;2022-09-28T14:32:04;1.73;;;1.08;;
35606;SDS011;21729;58.392;15.656;2022-09-28T14:34:53;3.08;;;1.10;;
35606;SDS011;21729;58.392;15.656;2022-09-28T14:37:24;2.10;;;1.00;;
35606;SDS011;21729;58.392;15.656;2022-09-28T14:40:16;2.53;;;1.20;;
35606;SDS011;21729;58.392;15.656;2022-09-28T14:43:18;1.88;;;1.10;;
35606;SDS011;21729;58.392;15.656;2022-09-28T14:52:09;2.92;;;1.13;;
35606;SDS011;21729;58.392;15.656;2022-09-28T14:54:42;2.63;;;1.38;;
35606;SDS011;21729;58.392;15.656;2022-09-28T14:57:18;2.17;;;1.13;;
35606;SDS011;21729;58.392;15.656;2022-09-28T14:59:49;2.80;;;1.45;;
35606;SDS011;21729;58.392;15.656;2022-09-28T15:02:24;2.00;;;1.27;;
35606;SDS011;21729;58.392;15.656;2022-09-28T15:04:58;2.03;;;1.23;;
35606;SDS011;21729;58.392;15.656;2022-09-28T15:07:41;3.20;;;1.40;;
35606;SDS011;21729;58.392;15.656;2022-09-28T15:10:13;2.63;;;1.30;;
35606;SDS011;21729;58.392;15.656;2022-09-28T15:12:46;2.88;;;1.02;;
35606;SDS011;21729;58.392;15.656;2022-09-28T15:15:22;1.40;;;1.30;;
35606;SDS011;21729;58.392;15.656;2022-09-28T15:17:56;1.50;;;1.20;;